Weather at Essex County Airport

Public forecast

Using degrees Fahrenheit for public forecast. Weather courtesy of forecast.io.

Current aviation weather report (METAR) for Essex County Airport

Retrieved 2020/09/29 22:53 UTC (10 minutes ago):

KCDW 292253Z AUTO 00000KT 9SM -RA FEW012 BKN060 OVC110 23/21 A2977 RMK AO2 SLP086 P0003 T02280211

Closest aviation forecast (TAF) to Essex County Airport

Closest forecast is Teterboro Airport, 10.1 nm (18.8 km) E. Retrieved 2020/09/29 18:42 UTC (4 hours ago):

TAF KTEB 291741Z 2918/3024 18008KT P6SM VCSH SCT008 BKN030 TEMPO 2918/2922 BKN008 FM292200 14007KT 6SM SHRA BR BKN008 OVC025 FM300300 15008KT 3SM SHRA BR OVC008 FM300700 22012G22KT 2SM +SHRA BR OVC008 WS020/19050KT FM301200 26012G22KT 5SM BR VCSH OVC015 FM301500 26015G26KT P6SM SCT040 BKN250